sensor_id;sensor_type;location;lat;lon;timestamp;pressure;altitude;pressure_sealevel;temperature
79756;BMP280;69239;50.678;12.280;2024-03-08T00:00:16;97967.66;;;0.95
79756;BMP280;69239;50.678;12.280;2024-03-08T00:02:44;97951.44;;;0.88
79756;BMP280;69239;50.678;12.280;2024-03-08T00:05:10;97955.19;;;0.80
79756;BMP280;69239;50.678;12.280;2024-03-08T00:07:36;97954.41;;;0.79
79756;BMP280;69239;50.678;12.280;2024-03-08T00:10:07;97964.34;;;0.71
79756;BMP280;69239;50.678;12.280;2024-03-08T00:12:36;97957.13;;;0.61
79756;BMP280;69239;50.678;12.280;2024-03-08T00:15:01;97954.31;;;0.51
79756;BMP280;69239;50.678;12.280;2024-03-08T00:17:26;97955.53;;;0.48
79756;BMP280;69239;50.678;12.280;2024-03-08T00:19:52;97951.84;;;0.44
79756;BMP280;69239;50.678;12.280;2024-03-08T00:22:17;97953.28;;;0.40
79756;BMP280;69239;50.678;12.280;2024-03-08T00:24:43;97953.19;;;0.35
79756;BMP280;69239;50.678;12.280;2024-03-08T00:27:08;97946.56;;;0.27
79756;BMP280;69239;50.678;12.280;2024-03-08T00:29:34;97952.09;;;0.31
79756;BMP280;69239;50.678;12.280;2024-03-08T00:32:00;97952.53;;;0.28
79756;BMP280;69239;50.678;12.280;2024-03-08T00:34:26;97941.84;;;0.24
79756;BMP280;69239;50.678;12.280;2024-03-08T00:36:51;97937.13;;;0.21
79756;BMP280;69239;50.678;12.280;2024-03-08T00:39:17;97934.75;;;0.20
79756;BMP280;69239;50.678;12.280;2024-03-08T00:41:44;97937.00;;;0.16
79756;BMP280;69239;50.678;12.280;2024-03-08T00:44:10;97941.16;;;0.17
79756;BMP280;69239;50.678;12.280;2024-03-08T00:46:35;97936.88;;;0.11
79756;BMP280;69239;50.678;12.280;2024-03-08T00:49:00;97931.72;;;0.11
79756;BMP280;69239;50.678;12.280;2024-03-08T00:51:26;97936.66;;;0.01
79756;BMP280;69239;50.678;12.280;2024-03-08T00:53:51;97942.41;;;0.03
79756;BMP280;69239;50.678;12.280;2024-03-08T00:56:17;97932.69;;;-0.02
79756;BMP280;69239;50.678;12.280;2024-03-08T00:58:43;97928.88;;;-0.11
79756;BMP280;69239;50.678;12.280;2024-03-08T01:01:08;97931.78;;;-0.07
79756;BMP280;69239;50.678;12.280;2024-03-08T01:03:35;97932.81;;;-0.08
79756;BMP280;69239;50.678;12.280;2024-03-08T01:06:00;97932.03;;;-0.09
79756;BMP280;69239;50.678;12.280;2024-03-08T01:08:29;97925.72;;;-0.13
79756;BMP280;69239;50.678;12.280;2024-03-08T01:10:54;97922.69;;;-0.10
79756;BMP280;69239;50.678;12.280;2024-03-08T01:13:20;97921.91;;;-0.10
79756;BMP280;69239;50.678;12.280;2024-03-08T01:15:46;97901.97;;;-0.21
79756;BMP280;69239;50.678;12.280;2024-03-08T01:18:11;97914.13;;;-0.10
79756;BMP280;69239;50.678;12.280;2024-03-08T01:20:37;97919.88;;;-0.08
79756;BMP280;69239;50.678;12.280;2024-03-08T01:23:02;97915.94;;;-0.11
79756;BMP280;69239;50.678;12.280;2024-03-08T01:25:28;97912.00;;;-0.13
79756;BMP280;69239;50.678;12.280;2024-03-08T01:27:53;97916.41;;;-0.14
79756;BMP280;69239;50.678;12.280;2024-03-08T01:30:19;97905.91;;;-0.19
79756;BMP280;69239;50.678;12.280;2024-03-08T01:32:44;97904.69;;;-0.16
79756;BMP280;69239;50.678;12.280;2024-03-08T01:35:10;97888.69;;;-0.25
79756;BMP280;69239;50.678;12.280;2024-03-08T01:37:36;97896.91;;;-0.16
79756;BMP280;69239;50.678;12.280;2024-03-08T01:40:01;97892.88;;;-0.12
79756;BMP280;69239;50.678;12.280;2024-03-08T01:42:28;97886.34;;;-0.15
79756;BMP280;69239;50.678;12.280;2024-03-08T01:44:53;97861.91;;;-0.31
79756;BMP280;69239;50.678;12.280;2024-03-08T01:47:18;97879.94;;;-0.24
79756;BMP280;69239;50.678;12.280;2024-03-08T01:49:45;97883.28;;;-0.23
79756;BMP280;69239;50.678;12.280;2024-03-08T01:52:10;97882.19;;;-0.28
79756;BMP280;69239;50.678;12.280;2024-03-08T01:54:36;97872.25;;;-0.31
79756;BMP280;69239;50.678;12.280;2024-03-08T01:57:01;97867.16;;;-0.37
79756;BMP280;69239;50.678;12.280;2024-03-08T01:59:27;97854.34;;;-0.44
79756;BMP280;69239;50.678;12.280;2024-03-08T02:01:55;97863.56;;;-0.36
79756;BMP280;69239;50.678;12.280;2024-03-08T02:04:20;97860.41;;;-0.38
79756;BMP280;69239;50.678;12.280;2024-03-08T02:06:46;97862.09;;;-0.44
79756;BMP280;69239;50.678;12.280;2024-03-08T02:09:13;97861.06;;;-0.43
79756;BMP280;69239;50.678;12.280;2024-03-08T02:11:40;97857.38;;;-0.47
79756;BMP280;69239;50.678;12.280;2024-03-08T02:14:06;97855.22;;;-0.50
79756;BMP280;69239;50.678;12.280;2024-03-08T02:16:31;97845.78;;;-0.56
79756;BMP280;69239;50.678;12.280;2024-03-08T02:18:56;97852.53;;;-0.55
79756;BMP280;69239;50.678;12.280;2024-03-08T02:21:22;97853.53;;;-0.56
79756;BMP280;69239;50.678;12.280;2024-03-08T02:23:47;97846.66;;;-0.62
79756;BMP280;69239;50.678;12.280;2024-03-08T02:26:12;97843.06;;;-0.61
79756;BMP280;69239;50.678;12.280;2024-03-08T02:28:38;97843.50;;;-0.64
79756;BMP280;69239;50.678;12.280;2024-03-08T02:31:04;97841.00;;;-0.71
79756;BMP280;69239;50.678;12.280;2024-03-08T02:33:33;97847.31;;;-0.67
79756;BMP280;69239;50.678;12.280;2024-03-08T02:36:01;97838.66;;;-0.72
79756;BMP280;69239;50.678;12.280;2024-03-08T02:38:26;97832.38;;;-0.76
79756;BMP280;69239;50.678;12.280;2024-03-08T02:40:52;97843.81;;;-0.72
79756;BMP280;69239;50.678;12.280;2024-03-08T02:43:19;97834.38;;;-0.78
79756;BMP280;69239;50.678;12.280;2024-03-08T02:45:45;97836.84;;;-0.84
79756;BMP280;69239;50.678;12.280;2024-03-08T02:48:11;97838.28;;;-0.88
79756;BMP280;69239;50.678;12.280;2024-03-08T02:50:37;97839.72;;;-0.92
79756;BMP280;69239;50.678;12.280;2024-03-08T02:53:04;97841.75;;;-0.94
79756;BMP280;69239;50.678;12.280;2024-03-08T02:55:30;97840.16;;;-0.95
79756;BMP280;69239;50.678;12.280;2024-03-08T02:57:56;97843.75;;;-0.96
79756;BMP280;69239;50.678;12.280;2024-03-08T03:00:22;97834.44;;;-0.97
79756;BMP280;69239;50.678;12.280;2024-03-08T03:02:49;97832.88;;;-0.98
79756;BMP280;69239;50.678;12.280;2024-03-08T03:05:21;97832.88;;;-0.98
79756;BMP280;69239;50.678;12.280;2024-03-08T03:07:46;97829.94;;;-1.01
79756;BMP280;69239;50.678;12.280;2024-03-08T03:10:12;97830.72;;;-1.01
79756;BMP280;69239;50.678;12.280;2024-03-08T03:12:38;97835.88;;;-1.01
79756;BMP280;69239;50.678;12.280;2024-03-08T03:15:04;97829.69;;;-1.00
79756;BMP280;69239;50.678;12.280;2024-03-08T03:17:29;97822.41;;;-1.03
79756;BMP280;69239;50.678;12.280;2024-03-08T03:19:55;97823.19;;;-1.02
79756;BMP280;69239;50.678;12.280;2024-03-08T03:22:20;97826.56;;;-1.02
79756;BMP280;69239;50.678;12.280;2024-03-08T03:24:46;97825.22;;;-1.04
79756;BMP280;69239;50.678;12.280;2024-03-08T03:27:13;97819.69;;;-1.08
79756;BMP280;69239;50.678;12.280;2024-03-08T03:29:40;97823.41;;;-1.04
79756;BMP280;69239;50.678;12.280;2024-03-08T03:32:07;97822.41;;;-1.03
79756;BMP280;69239;50.678;12.280;2024-03-08T03:34:33;97827.56;;;-1.03
79756;BMP280;69239;50.678;12.280;2024-03-08T03:37:01;97828.56;;;-1.04
79756;BMP280;69239;50.678;12.280;2024-03-08T03:39:27;97822.81;;;-1.06
79756;BMP280;69239;50.678;12.280;2024-03-08T03:41:56;97818.09;;;-1.09
79756;BMP280;69239;50.678;12.280;2024-03-08T03:44:21;97819.69;;;-1.08
79756;BMP280;69239;50.678;12.280;2024-03-08T03:46:48;97818.34;;;-1.11
79756;BMP280;69239;50.678;12.280;2024-03-08T03:49:13;97812.59;;;-1.13
79756;BMP280;69239;50.678;12.280;2024-03-08T03:51:39;97812.59;;;-1.13
79756;BMP280;69239;50.678;12.280;2024-03-08T03:54:04;97804.28;;;-1.15
79756;BMP280;69239;50.678;12.280;2024-03-08T03:56:29;97810.22;;;-1.14
79756;BMP280;69239;50.678;12.280;2024-03-08T03:58:55;97808.00;;;-1.11
79756;BMP280;69239;50.678;12.280;2024-03-08T04:01:21;97805.66;;;-1.12
79756;BMP280;69239;50.678;12.280;2024-03-08T04:03:46;97792.81;;;-1.19
79756;BMP280;69239;50.678;12.280;2024-03-08T04:06:12;97792.81;;;-1.19
79756;BMP280;69239;50.678;12.280;2024-03-08T04:08:37;97797.31;;;-1.14
79756;BMP280;69239;50.678;12.280;2024-03-08T04:11:03;97799.09;;;-1.15
79756;BMP280;69239;50.678;12.280;2024-03-08T04:13:28;97790.78;;;-1.17
79756;BMP280;69239;50.678;12.280;2024-03-08T04:15:54;97799.09;;;-1.15
79756;BMP280;69239;50.678;12.280;2024-03-08T04:18:19;97791.25;;;-1.20
79756;BMP280;69239;50.678;12.280;2024-03-08T04:20:44;97791.56;;;-1.16
79756;BMP280;69239;50.678;12.280;2024-03-08T04:23:10;97801.13;;;-1.17
79756;BMP280;69239;50.678;12.280;2024-03-08T04:25:35;97794.03;;;-1.21
79756;BMP280;69239;50.678;12.280;2024-03-08T04:28:00;97787.75;;;-1.25
79756;BMP280;69239;50.678;12.280;2024-03-08T04:30:26;97780.31;;;-1.33
79756;BMP280;69239;50.678;12.280;2024-03-08T04:32:53;97794.91;;;-1.27
79756;BMP280;69239;50.678;12.280;2024-03-08T04:35:18;97793.78;;;-1.31
79756;BMP280;69239;50.678;12.280;2024-03-08T04:37:45;97791.19;;;-1.31
79756;BMP280;69239;50.678;12.280;2024-03-08T04:40:10;97794.56;;;-1.31
79756;BMP280;69239;50.678;12.280;2024-03-08T04:42:38;97783.44;;;-1.31
79756;BMP280;69239;50.678;12.280;2024-03-08T04:45:04;97785.84;;;-1.37
79756;BMP280;69239;50.678;12.280;2024-03-08T04:47:29;97779.13;;;-1.38
79756;BMP280;69239;50.678;12.280;2024-03-08T04:49:55;97782.25;;;-1.36
79756;BMP280;69239;50.678;12.280;2024-03-08T04:52:21;97779.13;;;-1.38
79756;BMP280;69239;50.678;12.280;2024-03-08T04:54:47;97774.03;;;-1.44
79756;BMP280;69239;50.678;12.280;2024-03-08T04:57:12;97767.66;;;-1.42
79756;BMP280;69239;50.678;12.280;2024-03-08T04:59:37;97774.28;;;-1.46
79756;BMP280;69239;50.678;12.280;2024-03-08T05:02:03;97772.47;;;-1.45
79756;BMP280;69239;50.678;12.280;2024-03-08T05:04:28;97770.13;;;-1.47
79756;BMP280;69239;50.678;12.280;2024-03-08T05:06:54;97758.72;;;-1.57
79756;BMP280;69239;50.678;12.280;2024-03-08T05:09:19;97766.16;;;-1.49
79756;BMP280;69239;50.678;12.280;2024-03-08T05:11:46;97763.00;;;-1.51
79756;BMP280;69239;50.678;12.280;2024-03-08T05:14:13;97764.44;;;-1.55
79756;BMP280;69239;50.678;12.280;2024-03-08T05:16:45;97767.38;;;-1.52
79756;BMP280;69239;50.678;12.280;2024-03-08T05:19:16;97755.34;;;-1.58
79756;BMP280;69239;50.678;12.280;2024-03-08T05:21:46;97755.91;;;-1.56
79756;BMP280;69239;50.678;12.280;2024-03-08T05:24:11;97753.63;;;-1.64
79756;BMP280;69239;50.678;12.280;2024-03-08T05:26:37;97766.69;;;-1.59
79756;BMP280;69239;50.678;12.280;2024-03-08T05:29:04;97749.72;;;-1.67
79756;BMP280;69239;50.678;12.280;2024-03-08T05:31:55;97770.41;;;-1.55
79756;BMP280;69239;50.678;12.280;2024-03-08T05:34:19;97764.66;;;-1.57
79756;BMP280;69239;50.678;12.280;2024-03-08T05:36:46;97763.09;;;-1.58
79756;BMP280;69239;50.678;12.280;2024-03-08T05:39:17;97765.81;;;-1.53
79756;BMP280;69239;50.678;12.280;2024-03-08T05:42:01;97761.06;;;-1.56
79756;BMP280;69239;50.678;12.280;2024-03-08T05:44:26;97771.59;;;-1.09
79756;BMP280;69239;50.678;12.280;2024-03-08T05:46:53;97768.09;;;-0.85
79756;BMP280;69239;50.678;12.280;2024-03-08T05:49:19;97766.75;;;-0.75
79756;BMP280;69239;50.678;12.280;2024-03-08T05:51:44;97759.41;;;-0.78
79756;BMP280;69239;50.678;12.280;2024-03-08T05:54:11;97762.34;;;-0.75
79756;BMP280;69239;50.678;12.280;2024-03-08T05:56:37;97756.84;;;-0.78
79756;BMP280;69239;50.678;12.280;2024-03-08T05:59:03;97751.75;;;-0.85
79756;BMP280;69239;50.678;12.280;2024-03-08T06:01:28;97756.84;;;-0.78
79756;BMP280;69239;50.678;12.280;2024-03-08T06:03:55;97764.59;;;-0.78
79756;BMP280;69239;50.678;12.280;2024-03-08T06:06:21;97759.53;;;-0.73
79756;BMP280;69239;50.678;12.280;2024-03-08T06:08:48;97754.03;;;-0.65
79756;BMP280;69239;50.678;12.280;2024-03-08T06:11:14;97752.81;;;-0.51
79756;BMP280;69239;50.678;12.280;2024-03-08T06:13:40;97759.78;;;-0.40
79756;BMP280;69239;50.678;12.280;2024-03-08T06:16:06;97758.00;;;-0.39
79756;BMP280;69239;50.678;12.280;2024-03-08T06:18:34;97762.63;;;-0.30
79756;BMP280;69239;50.678;12.280;2024-03-08T06:21:02;97753.94;;;0.00
79756;BMP280;69239;50.678;12.280;2024-03-08T06:23:27;97763.94;;;0.37
79756;BMP280;69239;50.678;12.280;2024-03-08T06:25:53;97750.41;;;0.63
79756;BMP280;69239;50.678;12.280;2024-03-08T06:28:18;97759.81;;;0.98
79756;BMP280;69239;50.678;12.280;2024-03-08T06:30:43;97764.06;;;1.37
79756;BMP280;69239;50.678;12.280;2024-03-08T06:33:11;97744.97;;;1.82
79756;BMP280;69239;50.678;12.280;2024-03-08T06:35:36;97748.53;;;2.20
79756;BMP280;69239;50.678;12.280;2024-03-08T06:38:03;97747.75;;;2.46
79756;BMP280;69239;50.678;12.280;2024-03-08T06:40:29;97741.72;;;2.68
79756;BMP280;69239;50.678;12.280;2024-03-08T06:42:55;97748.03;;;2.77
79756;BMP280;69239;50.678;12.280;2024-03-08T06:45:20;97753.72;;;2.74
79756;BMP280;69239;50.678;12.280;2024-03-08T06:47:47;97750.94;;;2.53
79756;BMP280;69239;50.678;12.280;2024-03-08T06:50:13;97759.31;;;2.34
79756;BMP280;69239;50.678;12.280;2024-03-08T06:52:40;97761.53;;;2.20
79756;BMP280;69239;50.678;12.280;2024-03-08T06:55:06;97753.31;;;2.06
79756;BMP280;69239;50.678;12.280;2024-03-08T06:57:33;97748.22;;;1.94
79756;BMP280;69239;50.678;12.280;2024-03-08T06:59:58;97744.56;;;1.90
79756;BMP280;69239;50.678;12.280;2024-03-08T07:02:25;97738.34;;;1.91
79756;BMP280;69239;50.678;12.280;2024-03-08T07:04:51;97741.97;;;1.90
79756;BMP280;69239;50.678;12.280;2024-03-08T07:07:17;97741.13;;;1.90
79756;BMP280;69239;50.678;12.280;2024-03-08T07:09:45;97741.13;;;1.85
79756;BMP280;69239;50.678;12.280;2024-03-08T07:12:10;97745.00;;;1.87
79756;BMP280;69239;50.678;12.280;2024-03-08T07:14:38;97741.59;;;1.82
79756;BMP280;69239;50.678;12.280;2024-03-08T07:17:06;97745.47;;;1.79
79756;BMP280;69239;50.678;12.280;2024-03-08T07:19:34;97742.78;;;1.74
79756;BMP280;69239;50.678;12.280;2024-03-08T07:22:01;97739.41;;;1.74
79756;BMP280;69239;50.678;12.280;2024-03-08T07:24:28;97727.63;;;1.88
79756;BMP280;69239;50.678;12.280;2024-03-08T07:27:05;97737.91;;;2.21
79756;BMP280;69239;50.678;12.280;2024-03-08T07:29:32;97728.69;;;2.36
79756;BMP280;69239;50.678;12.280;2024-03-08T07:31:57;97730.66;;;2.50
79756;BMP280;69239;50.678;12.280;2024-03-08T07:34:43;97721.63;;;2.58
79756;BMP280;69239;50.678;12.280;2024-03-08T07:37:08;97734.09;;;2.88
79756;BMP280;69239;50.678;12.280;2024-03-08T07:39:38;97723.94;;;3.24
79756;BMP280;69239;50.678;12.280;2024-03-08T07:42:04;97721.53;;;3.64
79756;BMP280;69239;50.678;12.280;2024-03-08T07:44:29;97714.72;;;4.57
79756;BMP280;69239;50.678;12.280;2024-03-08T07:46:57;97715.22;;;5.79
79756;BMP280;69239;50.678;12.280;2024-03-08T07:49:22;97709.91;;;6.97
79756;BMP280;69239;50.678;12.280;2024-03-08T07:51:48;97711.41;;;8.07
79756;BMP280;69239;50.678;12.280;2024-03-08T07:54:14;97688.88;;;8.98
79756;BMP280;69239;50.678;12.280;2024-03-08T07:56:40;97709.28;;;10.37
79756;BMP280;69239;50.678;12.280;2024-03-08T07:59:05;97698.59;;;11.65
79756;BMP280;69239;50.678;12.280;2024-03-08T08:01:32;97703.53;;;13.03
79756;BMP280;69239;50.678;12.280;2024-03-08T08:03:58;97686.41;;;14.29
79756;BMP280;69239;50.678;12.280;2024-03-08T08:06:24;97687.19;;;15.30
79756;BMP280;69239;50.678;12.280;2024-03-08T08:08:50;97679.22;;;16.17
79756;BMP280;69239;50.678;12.280;2024-03-08T08:11:16;97683.06;;;16.86
79756;BMP280;69239;50.678;12.280;2024-03-08T08:13:42;97693.31;;;17.42
79756;BMP280;69239;50.678;12.280;2024-03-08T08:16:09;97689.19;;;17.87
79756;BMP280;69239;50.678;12.280;2024-03-08T08:18:34;97674.09;;;18.44
79756;BMP280;69239;50.678;12.280;2024-03-08T08:21:00;97675.78;;;18.85
79756;BMP280;69239;50.678;12.280;2024-03-08T08:23:26;97679.38;;;19.33
79756;BMP280;69239;50.678;12.280;2024-03-08T08:25:51;97657.63;;;19.72
79756;BMP280;69239;50.678;12.280;2024-03-08T08:28:17;97658.09;;;20.39
79756;BMP280;69239;50.678;12.280;2024-03-08T08:30:45;97672.03;;;20.70
79756;BMP280;69239;50.678;12.280;2024-03-08T08:33:11;97672.53;;;21.07
79756;BMP280;69239;50.678;12.280;2024-03-08T08:35:38;97666.44;;;21.14
79756;BMP280;69239;50.678;12.280;2024-03-08T08:38:05;97669.16;;;21.17
79756;BMP280;69239;50.678;12.280;2024-03-08T08:40:32;97662.25;;;21.27
79756;BMP280;69239;50.678;12.280;2024-03-08T08:42:58;97656.44;;;20.93
79756;BMP280;69239;50.678;12.280;2024-03-08T08:45:25;97646.69;;;20.49
79756;BMP280;69239;50.678;12.280;2024-03-08T08:47:50;97651.47;;;20.12
79756;BMP280;69239;50.678;12.280;2024-03-08T08:50:16;97652.56;;;19.60
79756;BMP280;69239;50.678;12.280;2024-03-08T08:52:49;97651.75;;;19.15
79756;BMP280;69239;50.678;12.280;2024-03-08T08:55:14;97649.97;;;18.93
79756;BMP280;69239;50.678;12.280;2024-03-08T08:57:43;97649.94;;;18.63
79756;BMP280;69239;50.678;12.280;2024-03-08T09:00:09;97645.19;;;18.49
79756;BMP280;69239;50.678;12.280;2024-03-08T09:02:41;97654.69;;;18.20
79756;BMP280;69239;50.678;12.280;2024-03-08T09:05:06;97649.44;;;17.78
79756;BMP280;69239;50.678;12.280;2024-03-08T09:07:33;97649.81;;;17.35
79756;BMP280;69239;50.678;12.280;2024-03-08T09:10:00;97647.94;;;17.16
79756;BMP280;69239;50.678;12.280;2024-03-08T09:12:26;97648.38;;;17.37
79756;BMP280;69239;50.678;12.280;2024-03-08T09:14:52;97642.47;;;17.28
79756;BMP280;69239;50.678;12.280;2024-03-08T09:17:17;97643.91;;;17.03
79756;BMP280;69239;50.678;12.280;2024-03-08T09:19:58;97642.91;;;16.56
79756;BMP280;69239;50.678;12.280;2024-03-08T09:22:24;97644.97;;;16.28
79756;BMP280;69239;50.678;12.280;2024-03-08T09:24:50;97633.22;;;16.13
79756;BMP280;69239;50.678;12.280;2024-03-08T09:27:15;97635.78;;;15.94
79756;BMP280;69239;50.678;12.280;2024-03-08T09:29:41;97626.00;;;15.82
79756;BMP280;69239;50.678;12.280;2024-03-08T09:32:06;97623.28;;;15.79
79756;BMP280;69239;50.678;12.280;2024-03-08T09:34:32;97623.47;;;15.42
79756;BMP280;69239;50.678;12.280;2024-03-08T09:36:57;97622.59;;;15.38
79756;BMP280;69239;50.678;12.280;2024-03-08T09:39:22;97620.34;;;15.52
79756;BMP280;69239;50.678;12.280;2024-03-08T09:41:48;97615.03;;;15.52
79756;BMP280;69239;50.678;12.280;2024-03-08T09:44:15;97622.00;;;15.29
79756;BMP280;69239;50.678;12.280;2024-03-08T09:46:40;97616.06;;;15.20
79756;BMP280;69239;50.678;12.280;2024-03-08T09:49:06;97609.19;;;15.19
79756;BMP280;69239;50.678;12.280;2024-03-08T09:51:33;97621.06;;;15.09
79756;BMP280;69239;50.678;12.280;2024-03-08T09:54:00;97614.94;;;14.81
79756;BMP280;69239;50.678;12.280;2024-03-08T09:56:26;97607.94;;;14.48
79756;BMP280;69239;50.678;12.280;2024-03-08T09:58:52;97605.38;;;14.28
79756;BMP280;69239;50.678;12.280;2024-03-08T10:01:38;97604.31;;;14.29
79756;BMP280;69239;50.678;12.280;2024-03-08T10:04:04;97602.13;;;14.43
79756;BMP280;69239;50.678;12.280;2024-03-08T10:06:29;97593.72;;;14.29
79756;BMP280;69239;50.678;12.280;2024-03-08T10:08:56;97597.44;;;14.28
79756;BMP280;69239;50.678;12.280;2024-03-08T10:11:25;97585.97;;;14.48
79756;BMP280;69239;50.678;12.280;2024-03-08T10:13:52;97575.97;;;14.81
79756;BMP280;69239;50.678;12.280;2024-03-08T10:16:17;97571.97;;;14.87
79756;BMP280;69239;50.678;12.280;2024-03-08T10:18:45;97566.09;;;14.94
79756;BMP280;69239;50.678;12.280;2024-03-08T10:21:10;97562.25;;;14.92
79756;BMP280;69239;50.678;12.280;2024-03-08T10:23:36;97564.63;;;14.97
79756;BMP280;69239;50.678;12.280;2024-03-08T10:26:16;97559.81;;;15.14
79756;BMP280;69239;50.678;12.280;2024-03-08T10:28:42;97548.84;;;15.28
79756;BMP280;69239;50.678;12.280;2024-03-08T10:31:09;97560.75;;;15.50
79756;BMP280;69239;50.678;12.280;2024-03-08T10:33:34;97549.03;;;15.67
79756;BMP280;69239;50.678;12.280;2024-03-08T10:36:00;97553.22;;;15.68
79756;BMP280;69239;50.678;12.280;2024-03-08T10:38:30;97559.13;;;15.45
79756;BMP280;69239;50.678;12.280;2024-03-08T10:40:57;97558.47;;;15.20
79756;BMP280;69239;50.678;12.280;2024-03-08T10:43:24;97553.25;;;14.96
79756;BMP280;69239;50.678;12.280;2024-03-08T10:46:03;97549.63;;;14.73
79756;BMP280;69239;50.678;12.280;2024-03-08T10:48:36;97549.19;;;14.59
79756;BMP280;69239;50.678;12.280;2024-03-08T10:51:06;97550.59;;;14.56
79756;BMP280;69239;50.678;12.280;2024-03-08T10:53:33;97552.19;;;14.57
79756;BMP280;69239;50.678;12.280;2024-03-08T10:55:59;97540.19;;;14.75
79756;BMP280;69239;50.678;12.280;2024-03-08T10:58:26;97536.97;;;15.10
79756;BMP280;69239;50.678;12.280;2024-03-08T11:00:53;97543.78;;;15.39
79756;BMP280;69239;50.678;12.280;2024-03-08T11:09:02;97512.91;;;15.03
79756;BMP280;69239;50.678;12.280;2024-03-08T11:11:32;97520.88;;;15.03
79756;BMP280;69239;50.678;12.280;2024-03-08T11:13:59;97519.03;;;15.19
79756;BMP280;69239;50.678;12.280;2024-03-08T11:18:53;97504.38;;;15.25
79756;BMP280;69239;50.678;12.280;2024-03-08T11:21:18;97508.81;;;15.05
79756;BMP280;69239;50.678;12.280;2024-03-08T11:24:02;97508.03;;;15.05
79756;BMP280;69239;50.678;12.280;2024-03-08T11:26:29;97502.50;;;15.26
79756;BMP280;69239;50.678;12.280;2024-03-08T11:31:50;97492.59;;;15.23
79756;BMP280;69239;50.678;12.280;2024-03-08T11:34:15;97486.88;;;15.36
79756;BMP280;69239;50.678;12.280;2024-03-08T11:36:41;97485.88;;;15.57
79756;BMP280;69239;50.678;12.280;2024-03-08T11:39:07;97477.44;;;15.54
79756;BMP280;69239;50.678;12.280;2024-03-08T11:41:39;97473.72;;;15.55
79756;BMP280;69239;50.678;12.280;2024-03-08T11:44:06;97474.03;;;15.70
79756;BMP280;69239;50.678;12.280;2024-03-08T11:46:33;97466.72;;;15.82
79756;BMP280;69239;50.678;12.280;2024-03-08T11:48:59;97458.16;;;15.89
79756;BMP280;69239;50.678;12.280;2024-03-08T11:51:26;97450.75;;;15.98
79756;BMP280;69239;50.678;12.280;2024-03-08T11:53:52;97458.72;;;16.33
79756;BMP280;69239;50.678;12.280;2024-03-08T11:56:18;97449.28;;;16.55
79756;BMP280;69239;50.678;12.280;2024-03-08T11:59:03;97442.72;;;16.52
79756;BMP280;69239;50.678;12.280;2024-03-08T12:01:30;97434.34;;;16.70
79756;BMP280;69239;50.678;12.280;2024-03-08T12:03:57;97432.00;;;17.10
79756;BMP280;69239;50.678;12.280;2024-03-08T12:06:24;97433.72;;;17.48
79756;BMP280;69239;50.678;12.280;2024-03-08T12:08:49;97419.47;;;17.90
79756;BMP280;69239;50.678;12.280;2024-03-08T12:11:17;97423.22;;;18.56
79756;BMP280;69239;50.678;12.280;2024-03-08T12:13:43;97414.22;;;19.84
79756;BMP280;69239;50.678;12.280;2024-03-08T12:16:11;97405.09;;;21.55
79756;BMP280;69239;50.678;12.280;2024-03-08T12:18:38;97401.56;;;23.24
79756;BMP280;69239;50.678;12.280;2024-03-08T12:21:08;97390.47;;;23.86
79756;BMP280;69239;50.678;12.280;2024-03-08T12:23:41;97392.75;;;24.15
79756;BMP280;69239;50.678;12.280;2024-03-08T12:26:16;97391.63;;;25.22
79756;BMP280;69239;50.678;12.280;2024-03-08T12:28:46;97377.50;;;25.89
79756;BMP280;69239;50.678;12.280;2024-03-08T12:31:13;97376.63;;;25.60
79756;BMP280;69239;50.678;12.280;2024-03-08T12:33:55;97366.16;;;25.78
79756;BMP280;69239;50.678;12.280;2024-03-08T12:36:24;97374.44;;;26.81
79756;BMP280;69239;50.678;12.280;2024-03-08T12:38:49;97358.97;;;27.23
79756;BMP280;69239;50.678;12.280;2024-03-08T12:43:40;97363.00;;;26.00
79756;BMP280;69239;50.678;12.280;2024-03-08T12:46:08;97352.06;;;25.55
79756;BMP280;69239;50.678;12.280;2024-03-08T12:48:37;97355.53;;;25.19
79756;BMP280;69239;50.678;12.280;2024-03-08T12:51:08;97357.59;;;24.92
79756;BMP280;69239;50.678;12.280;2024-03-08T12:53:34;97361.88;;;24.66
79756;BMP280;69239;50.678;12.280;2024-03-08T12:55:59;97349.06;;;24.54
79756;BMP280;69239;50.678;12.280;2024-03-08T12:58:25;97342.31;;;24.42
79756;BMP280;69239;50.678;12.280;2024-03-08T13:00:53;97353.97;;;24.36
79756;BMP280;69239;50.678;12.280;2024-03-08T13:03:18;97347.41;;;24.37
79756;BMP280;69239;50.678;12.280;2024-03-08T13:05:44;97342.53;;;24.31
79756;BMP280;69239;50.678;12.280;2024-03-08T13:08:10;97347.22;;;24.24
79756;BMP280;69239;50.678;12.280;2024-03-08T13:10:41;97345.38;;;24.21
79756;BMP280;69239;50.678;12.280;2024-03-08T13:13:11;97327.22;;;24.48
79756;BMP280;69239;50.678;12.280;2024-03-08T13:15:37;97330.28;;;24.50
79756;BMP280;69239;50.678;12.280;2024-03-08T13:18:03;97330.81;;;24.42
79756;BMP280;69239;50.678;12.280;2024-03-08T13:20:28;97324.78;;;24.34
79756;BMP280;69239;50.678;12.280;2024-03-08T13:22:55;97326.88;;;24.23
79756;BMP280;69239;50.678;12.280;2024-03-08T13:25:21;97334.38;;;24.12
79756;BMP280;69239;50.678;12.280;2024-03-08T13:27:46;97335.38;;;24.21
79756;BMP280;69239;50.678;12.280;2024-03-08T13:30:12;97316.78;;;24.07
79756;BMP280;69239;50.678;12.280;2024-03-08T13:32:42;97329.13;;;24.01
79756;BMP280;69239;50.678;12.280;2024-03-08T13:35:11;97326.44;;;23.78
79756;BMP280;69239;50.678;12.280;2024-03-08T13:37:40;97330.53;;;23.86
79756;BMP280;69239;50.678;12.280;2024-03-08T13:40:06;97330.88;;;23.88
79756;BMP280;69239;50.678;12.280;2024-03-08T13:42:35;97328.63;;;23.86
79756;BMP280;69239;50.678;12.280;2024-03-08T13:45:01;97324.34;;;23.62
79756;BMP280;69239;50.678;12.280;2024-03-08T13:47:27;97318.22;;;23.62
79756;BMP280;69239;50.678;12.280;2024-03-08T13:49:52;97323.78;;;23.47
79756;BMP280;69239;50.678;12.280;2024-03-08T13:52:17;97307.38;;;23.42
79756;BMP280;69239;50.678;12.280;2024-03-08T13:54:44;97316.16;;;23.12
79756;BMP280;69239;50.678;12.280;2024-03-08T13:57:09;97306.59;;;22.73
79756;BMP280;69239;50.678;12.280;2024-03-08T13:59:34;97311.06;;;22.46
79756;BMP280;69239;50.678;12.280;2024-03-08T14:02:03;97317.09;;;22.16
79756;BMP280;69239;50.678;12.280;2024-03-08T14:04:29;97325.31;;;21.88
79756;BMP280;69239;50.678;12.280;2024-03-08T14:06:55;97323.50;;;21.67
79756;BMP280;69239;50.678;12.280;2024-03-08T14:09:24;97319.06;;;21.36